Time;durP1;ratioP1;P1;durP2;ratioP2;P2;SDS_P1;SDS_P2;PMS_P1;PMS_P2;Temp;Humidity;BMP_temperature;BMP_pressure;BME280_temperature;BME280_humidity;BME280_pressure;Samples;Min_cycle;Max_cycle;Signal;HPM_P1;HPM_P2
2022/07/31 00:00:58;;;;;;;5.77;3.63;;;23.30;99.90;;;;;;4990818;28;20453;-84
2022/07/31 00:03:24;;;;;;;8.57;3.47;;;23.30;99.90;;;;;;4985535;28;20488;-83
2022/07/31 00:05:49;;;;;;;11.13;3.70;;;23.30;99.90;;;;;;4979126;28;20179;-83
2022/07/31 00:08:15;;;;;;;9.87;3.40;;;23.30;99.90;;;;;;4990115;28;20229;-82
2022/07/31 00:10:40;;;;;;;19.53;3.70;;;23.30;99.90;;;;;;4991631;28;20217;-82
2022/07/31 00:13:06;;;;;;;9.07;3.40;;;23.30;99.90;;;;;;4994554;28;20245;-83
2022/07/31 00:15:31;;;;;;;6.07;3.40;;;23.30;99.90;;;;;;4993085;28;20195;-82
2022/07/31 00:17:57;;;;;;;9.70;3.90;;;23.20;99.90;;;;;;4978957;28;20201;-83
2022/07/31 00:20:22;;;;;;;11.57;3.70;;;23.20;99.90;;;;;;4976804;28;20202;-82
2022/07/31 00:22:49;;;;;;;6.17;3.50;;;23.20;99.90;;;;;;4987800;28;20218;-83
2022/07/31 00:25:16;;;;;;;8.77;3.60;;;23.20;99.90;;;;;;4992981;28;20182;-80
2022/07/31 00:27:42;;;;;;;11.03;3.60;;;23.10;99.90;;;;;;4990529;28;20807;-82
2022/07/31 00:30:08;;;;;;;7.67;3.93;;;23.10;99.90;;;;;;4974785;28;20472;-83
2022/07/31 00:32:34;;;;;;;5.57;3.90;;;23.00;99.90;;;;;;4990482;28;20462;-83
2022/07/31 00:35:00;;;;;;;9.85;3.80;;;23.00;99.90;;;;;;4968999;28;20797;-83
2022/07/31 00:37:26;;;;;;;6.43;4.20;;;23.00;99.90;;;;;;4987943;28;20202;-82
2022/07/31 00:39:53;;;;;;;5.07;3.30;;;23.00;99.90;;;;;;4972330;28;20457;-83
2022/07/31 00:42:21;;;;;;;6.60;3.80;;;23.00;99.90;;;;;;5013629;23;20219;-86
2022/07/31 00:44:47;;;;;;;6.53;3.60;;;22.90;99.90;;;;;;5013411;28;20444;-86
2022/07/31 00:47:12;;;;;;;7.93;3.40;;;22.80;99.90;;;;;;5006089;28;20814;-86
2022/07/31 00:49:38;;;;;;;7.20;3.93;;;22.70;99.90;;;;;;5010254;28;20187;-87
2022/07/31 00:52:04;;;;;;;4.90;3.73;;;22.70;99.90;;;;;;5007123;28;20237;-86
2022/07/31 00:54:30;;;;;;;3.80;3.40;;;22.70;99.90;;;;;;4993166;28;20190;-86
2022/07/31 00:56:56;;;;;;;19.43;4.00;;;22.60;99.90;;;;;;4993043;28;20448;-85
2022/07/31 00:59:21;;;;;;;5.07;3.47;;;22.60;99.90;;;;;;4967687;28;20660;-86
2022/07/31 01:01:47;;;;;;;4.60;3.50;;;22.60;99.90;;;;;;4972986;28;20192;-86
2022/07/31 01:04:15;;;;;;;4.90;3.50;;;22.50;99.90;;;;;;4973799;28;20630;-87
2022/07/31 01:06:41;;;;;;;5.00;3.67;;;22.50;99.90;;;;;;4993520;28;20670;-86
2022/07/31 01:09:06;;;;;;;7.63;4.10;;;22.50;99.90;;;;;;4993702;28;20434;-86
2022/07/31 01:12:01;;;;;;;6.30;3.33;;;22.40;99.90;;;;;;4987072;28;20440;-86
2022/07/31 01:14:32;;;;;;;4.73;3.23;;;22.40;99.90;;;;;;4980722;28;20206;-86
2022/07/31 01:16:59;;;;;;;6.20;3.97;;;22.40;99.90;;;;;;4992746;28;20995;-86
2022/07/31 01:19:45;;;;;;;4.70;3.33;;;22.40;99.90;;;;;;4975187;28;20437;-86
2022/07/31 01:22:48;;;;;;;4.43;3.40;;;22.40;99.90;;;;;;4979191;28;20465;-87
2022/07/31 01:25:55;;;;;;;6.30;4.00;;;22.40;99.90;;;;;;4986703;28;20448;-86
2022/07/31 01:28:59;;;;;;;7.57;4.17;;;22.40;99.90;;;;;;4984354;28;20476;-85
2022/07/31 01:31:32;;;;;;;12.07;4.20;;;22.30;99.90;;;;;;4995596;28;20503;-86
2022/07/31 01:34:23;;;;;;;6.60;4.33;;;22.20;99.90;;;;;;4981913;28;20438;-87
2022/07/31 01:36:56;;;;;;;7.07;4.80;;;22.20;99.90;;;;;;4982304;28;20495;-86
2022/07/31 01:39:22;;;;;;;8.57;4.50;;;22.20;99.90;;;;;;4992919;28;20426;-86
2022/07/31 01:41:49;;;;;;;6.67;4.60;;;22.10;99.90;;;;;;4986141;28;20483;-86
2022/07/31 01:44:17;;;;;;;10.03;4.80;;;22.10;99.90;;;;;;4978370;28;20476;-86
2022/07/31 01:46:45;;;;;;;6.67;4.00;;;22.10;99.90;;;;;;4987335;28;20488;-86
2022/07/31 01:49:12;;;;;;;12.30;4.50;;;22.10;99.90;;;;;;5007762;28;20490;-85
2022/07/31 01:51:38;;;;;;;6.13;3.80;;;22.10;99.90;;;;;;4995199;28;20439;-85
2022/07/31 01:54:05;;;;;;;5.80;4.53;;;22.10;99.90;;;;;;4995730;28;20451;-85
2022/07/31 01:56:31;;;;;;;10.30;3.90;;;22.10;99.90;;;;;;4996360;28;20446;-86
2022/07/31 01:58:59;;;;;;;7.10;4.40;;;22.10;99.90;;;;;;5000802;28;20781;-86
2022/07/31 02:01:26;;;;;;;6.07;4.23;;;22.10;99.90;;;;;;4994893;28;20466;-85
2022/07/31 02:03:53;;;;;;;8.50;3.87;;;22.10;99.90;;;;;;4986056;28;20470;-85
2022/07/31 02:06:21;;;;;;;6.03;3.50;;;22.10;99.90;;;;;;4994353;28;20463;-86
2022/07/31 02:08:49;;;;;;;5.63;3.90;;;22.10;99.90;;;;;;4982856;28;20419;-86
2022/07/31 02:11:17;;;;;;;5.03;3.50;;;22.10;99.90;;;;;;4990898;28;20471;-85
2022/07/31 02:13:45;;;;;;;7.67;4.47;;;22.10;99.90;;;;;;4994219;28;20455;-86
2022/07/31 02:16:12;;;;;;;7.00;3.87;;;22.10;99.90;;;;;;4994015;28;20446;-85
2022/07/31 02:18:40;;;;;;;3.93;3.27;;;22.10;99.90;;;;;;4968845;28;20440;-86
2022/07/31 02:21:06;;;;;;;5.27;3.50;;;22.10;99.90;;;;;;4994415;28;20444;-85
2022/07/31 02:23:32;;;;;;;6.27;3.63;;;22.00;99.90;;;;;;4985867;28;20463;-86
2022/07/31 02:25:59;;;;;;;6.53;3.73;;;22.00;99.90;;;;;;4994192;28;20449;-86
2022/07/31 02:28:25;;;;;;;5.40;3.37;;;22.00;99.90;;;;;;4993652;28;20793;-85
2022/07/31 02:30:52;;;;;;;5.93;3.20;;;22.00;99.90;;;;;;4994570;28;20422;-86
2022/07/31 02:33:21;;;;;;;7.50;3.60;;;22.00;99.90;;;;;;4994335;28;20449;-85
2022/07/31 02:35:49;;;;;;;7.73;3.70;;;21.90;99.90;;;;;;4976735;28;20441;-85
2022/07/31 02:38:18;;;;;;;5.90;3.50;;;21.90;99.90;;;;;;4975432;28;20443;-86
2022/07/31 02:40:44;;;;;;;8.27;4.00;;;21.90;99.90;;;;;;4975863;28;20444;-85
2022/07/31 02:43:10;;;;;;;7.53;3.90;;;21.90;99.90;;;;;;4993952;28;20471;-85
2022/07/31 02:45:37;;;;;;;6.60;3.47;;;21.90;99.90;;;;;;4994446;28;20518;-86
2022/07/31 02:48:03;;;;;;;7.20;3.87;;;21.80;99.90;;;;;;4976727;28;20431;-85
2022/07/31 02:50:29;;;;;;;4.30;3.03;;;21.80;99.90;;;;;;4994090;28;20435;-86
2022/07/31 02:52:55;;;;;;;6.47;2.97;;;21.80;99.90;;;;;;4980987;28;21016;-85
2022/07/31 02:55:21;;;;;;;3.43;3.00;;;21.80;99.90;;;;;;4991189;28;20448;-86
2022/07/31 02:57:47;;;;;;;5.30;3.40;;;21.70;99.90;;;;;;4993870;28;20172;-85
2022/07/31 03:00:22;;;;;;;5.03;3.47;;;21.70;99.90;;;;;;4994132;28;20180;-85
2022/07/31 03:02:49;;;;;;;7.20;3.73;;;21.70;99.90;;;;;;4993199;28;20473;-85
2022/07/31 03:05:15;;;;;;;3.93;3.43;;;21.70;99.90;;;;;;4993944;28;20438;-85
2022/07/31 03:07:41;;;;;;;7.50;3.83;;;21.60;99.90;;;;;;4993407;28;20418;-85
2022/07/31 03:10:09;;;;;;;3.90;2.90;;;21.60;99.90;;;;;;4967624;28;20478;-87
2022/07/31 03:12:38;;;;;;;3.30;2.73;;;21.60;99.90;;;;;;4991569;28;20575;-86
2022/07/31 03:15:09;;;;;;;5.60;2.80;;;21.50;99.90;;;;;;4988464;28;20445;-85
2022/07/31 03:17:37;;;;;;;5.20;2.80;;;21.50;99.90;;;;;;4979617;28;20441;-85
2022/07/31 03:20:04;;;;;;;5.77;2.83;;;21.50;99.90;;;;;;4997700;28;20517;-85
2022/07/31 03:22:32;;;;;;;4.43;2.90;;;21.50;99.90;;;;;;4995789;28;20493;-85
2022/07/31 03:25:00;;;;;;;4.67;2.77;;;21.40;99.90;;;;;;4997752;28;20536;-85
2022/07/31 03:27:26;;;;;;;3.40;2.27;;;21.40;99.90;;;;;;4993829;28;20441;-86
2022/07/31 03:29:53;;;;;;;6.60;3.03;;;21.40;99.90;;;;;;4997083;28;20433;-85
2022/07/31 03:32:19;;;;;;;7.27;3.10;;;21.40;99.90;;;;;;4978195;28;20275;-85
2022/07/31 03:34:45;;;;;;;6.77;2.60;;;21.40;99.90;;;;;;4999729;28;20522;-86
2022/07/31 03:37:10;;;;;;;4.13;2.97;;;21.40;99.90;;;;;;4996369;28;20463;-85
2022/07/31 03:39:36;;;;;;;4.37;2.70;;;21.40;99.90;;;;;;4987940;28;20193;-87
2022/07/31 03:42:02;;;;;;;3.83;2.33;;;21.40;99.90;;;;;;4997429;28;20297;-86
2022/07/31 03:44:31;;;;;;;4.50;2.47;;;21.30;99.90;;;;;;4981651;28;20238;-86
2022/07/31 03:46:58;;;;;;;5.47;3.30;;;21.30;99.90;;;;;;4996979;28;20795;-86
2022/07/31 03:49:24;;;;;;;5.77;2.93;;;21.40;99.90;;;;;;4996766;28;20442;-86
2022/07/31 03:51:49;;;;;;;4.03;2.57;;;21.30;99.90;;;;;;4988465;28;20426;-86
2022/07/31 03:54:15;;;;;;;3.07;2.63;;;21.30;99.90;;;;;;4992746;28;20542;-85
2022/07/31 03:56:44;;;;;;;9.03;2.57;;;21.30;99.90;;;;;;4988470;28;20723;-86
2022/07/31 03:59:09;;;;;;;4.63;2.47;;;21.30;99.90;;;;;;4990639;28;20187;-85
2022/07/31 04:01:35;;;;;;;3.00;2.53;;;21.40;99.90;;;;;;4996987;28;20427;-85
2022/07/31 04:04:01;;;;;;;2.67;2.47;;;21.30;99.90;;;;;;4994038;28;20580;-86
2022/07/31 04:06:26;;;;;;;3.23;2.13;;;21.30;99.90;;;;;;4978679;28;20449;-85
2022/07/31 04:08:52;;;;;;;3.00;2.43;;;21.30;99.90;;;;;;4989002;28;20655;-87
2022/07/31 04:11:17;;;;;;;4.17;2.80;;;21.30;99.90;;;;;;4989184;28;20192;-86
2022/07/31 04:13:43;;;;;;;5.80;2.83;;;21.30;99.90;;;;;;4995941;28;20208;-85
2022/07/31 04:16:08;;;;;;;3.70;2.43;;;21.30;99.90;;;;;;5003470;28;20195;-88
2022/07/31 04:18:34;;;;;;;3.50;2.70;;;21.40;99.90;;;;;;5000761;28;20195;-85
2022/07/31 04:20:59;;;;;;;3.27;2.67;;;21.30;99.90;;;;;;4995744;28;20191;-86
2022/07/31 04:23:25;;;;;;;9.73;2.50;;;21.40;99.90;;;;;;4994901;28;20694;-86
2022/07/31 04:25:51;;;;;;;4.97;3.10;;;21.30;99.90;;;;;;4975215;28;20235;-86
2022/07/31 04:28:16;;;;;;;5.07;2.70;;;21.30;99.90;;;;;;4971504;28;20184;-85
2022/07/31 04:30:42;;;;;;;3.77;2.70;;;21.30;99.90;;;;;;4994099;28;20663;-86
2022/07/31 04:33:08;;;;;;;3.27;2.83;;;21.30;99.90;;;;;;4996055;28;20276;-86
2022/07/31 04:35:33;;;;;;;4.63;3.10;;;21.30;99.90;;;;;;4995554;28;20195;-86
2022/07/31 04:37:59;;;;;;;3.70;2.30;;;21.30;99.90;;;;;;4991403;28;20274;-86
2022/07/31 04:40:26;;;;;;;3.70;2.70;;;21.30;99.90;;;;;;4992855;28;20197;-86
2022/07/31 04:42:52;;;;;;;6.07;2.90;;;21.40;99.90;;;;;;4975961;28;20226;-85
2022/07/31 04:45:18;;;;;;;3.90;2.77;;;21.40;99.90;;;;;;4995729;28;20950;-86
2022/07/31 04:47:43;;;;;;;6.43;2.50;;;21.40;99.90;;;;;;4982242;28;20535;-85
2022/07/31 04:50:09;;;;;;;3.33;2.40;;;21.40;99.90;;;;;;4991790;28;20192;-85
2022/07/31 04:52:34;;;;;;;3.07;2.77;;;21.40;99.90;;;;;;4992149;28;20200;-84
2022/07/31 04:55:00;;;;;;;4.07;2.77;;;21.40;99.90;;;;;;4982520;28;20191;-85
2022/07/31 04:57:26;;;;;;;2.43;2.23;;;21.40;99.90;;;;;;4994719;28;20202;-86
2022/07/31 04:59:51;;;;;;;7.17;2.70;;;21.40;99.90;;;;;;4996194;28;20795;-86
2022/07/31 05:02:17;;;;;;;3.30;2.80;;;21.50;99.90;;;;;;4995777;28;20199;-86
2022/07/31 05:04:43;;;;;;;2.70;2.10;;;21.50;99.90;;;;;;4980445;28;20192;-86
2022/07/31 05:07:08;;;;;;;5.20;2.73;;;21.50;99.90;;;;;;4995324;28;20286;-86
2022/07/31 05:09:34;;;;;;;3.57;2.53;;;21.60;99.90;;;;;;4995038;28;20662;-86
2022/07/31 05:12:01;;;;;;;3.57;2.20;;;21.70;99.90;;;;;;5005927;28;20181;-85
2022/07/31 05:14:27;;;;;;;2.87;2.57;;;21.70;99.90;;;;;;4990366;28;20454;-86
2022/07/31 05:16:53;;;;;;;5.60;2.50;;;21.80;99.90;;;;;;5001917;28;20427;-86
2022/07/31 05:19:18;;;;;;;2.90;2.70;;;21.80;99.90;;;;;;4994107;28;20642;-85
2022/07/31 05:21:45;;;;;;;4.80;2.80;;;21.80;99.90;;;;;;4990033;28;20439;-87
2022/07/31 05:24:10;;;;;;;3.27;2.50;;;21.80;99.90;;;;;;4990697;28;20263;-87
2022/07/31 05:26:37;;;;;;;3.03;2.67;;;21.90;99.90;;;;;;4989030;28;20432;-87
2022/07/31 05:29:04;;;;;;;2.40;2.20;;;21.80;99.90;;;;;;4969354;28;20799;-87
2022/07/31 05:31:29;;;;;;;2.30;2.10;;;21.90;99.90;;;;;;4974886;28;20439;-87
2022/07/31 05:33:57;;;;;;;5.47;2.20;;;21.90;99.90;;;;;;4983661;28;20454;-87
2022/07/31 05:36:24;;;;;;;3.30;2.40;;;21.90;99.90;;;;;;4990511;28;20193;-84
2022/07/31 05:38:49;;;;;;;3.50;2.40;;;21.90;99.90;;;;;;4971447;28;20441;-88
2022/07/31 05:41:15;;;;;;;6.07;3.10;;;22.00;99.90;;;;;;4983488;28;20531;-87
2022/07/31 05:43:41;;;;;;;4.30;2.63;;;22.20;99.90;;;;;;4985265;28;20307;-87
2022/07/31 05:46:07;;;;;;;3.00;2.13;;;22.30;99.90;;;;;;4989176;28;20672;-87
2022/07/31 05:48:33;;;;;;;2.90;2.70;;;22.50;99.90;;;;;;4986091;28;20244;-87
2022/07/31 05:50:59;;;;;;;2.50;2.20;;;22.80;99.90;;;;;;4970556;28;20439;-87
2022/07/31 05:53:24;;;;;;;2.60;2.40;;;23.10;99.90;;;;;;4990435;28;20956;-87
2022/07/31 05:55:50;;;;;;;2.70;2.30;;;23.20;99.90;;;;;;4970437;28;20608;-87
2022/07/31 05:58:17;;;;;;;3.00;2.00;;;23.30;99.90;;;;;;4983852;28;20195;-87
2022/07/31 06:00:45;;;;;;;10.23;2.70;;;23.50;99.90;;;;;;4986927;28;20443;-87
2022/07/31 06:03:11;;;;;;;3.30;2.20;;;23.90;99.90;;;;;;4983766;28;20503;-87
2022/07/31 06:05:41;;;;;;;2.53;2.20;;;23.80;99.90;;;;;;4986899;28;20454;-87
2022/07/31 06:08:08;;;;;;;2.97;2.30;;;23.60;99.90;;;;;;4982521;28;21007;-87
2022/07/31 06:10:35;;;;;;;3.60;2.60;;;23.30;99.90;;;;;;4986853;28;20779;-87
2022/07/31 06:13:01;;;;;;;6.03;2.27;;;23.20;99.90;;;;;;4983280;28;20863;-88
2022/07/31 06:15:27;;;;;;;3.13;2.47;;;22.90;99.90;;;;;;4979258;28;20443;-88
2022/07/31 06:17:52;;;;;;;3.17;2.87;;;22.70;99.90;;;;;;4987961;28;21021;-87
2022/07/31 06:20:18;;;;;;;4.47;2.83;;;22.60;99.90;;;;;;4991448;28;20531;-87
2022/07/31 06:22:43;;;;;;;3.37;2.70;;;22.50;99.90;;;;;;4985111;28;20243;-88
2022/07/31 06:25:10;;;;;;;3.30;3.00;;;22.40;99.90;;;;;;4986374;28;20185;-90
2022/07/31 06:27:36;;;;;;;3.30;2.63;;;22.30;99.90;;;;;;4988539;28;20184;-87
2022/07/31 06:30:05;;;;;;;3.70;2.63;;;22.30;99.90;;;;;;4983703;28;20981;-88
2022/07/31 06:32:32;;;;;;;4.27;3.10;;;22.20;99.90;;;;;;4983731;28;20562;-87
2022/07/31 06:34:58;;;;;;;4.10;2.90;;;22.20;99.90;;;;;;4990500;28;21157;-87
2022/07/31 06:37:24;;;;;;;7.40;3.03;;;22.20;99.90;;;;;;4992183;28;20503;-87
2022/07/31 06:39:50;;;;;;;4.17;2.50;;;22.10;99.90;;;;;;4983449;28;20443;-89
2022/07/31 06:42:20;;;;;;;4.28;2.67;;;22.10;99.90;;;;;;4941927;28;1131136;-87
2022/07/31 06:44:46;;;;;;;2.60;2.40;;;22.10;99.90;;;;;;5008366;22;20221;-83
2022/07/31 06:47:12;;;;;;;6.23;3.03;;;22.00;99.90;;;;;;4989458;28;20438;-83
2022/07/31 06:49:37;;;;;;;4.60;2.70;;;21.90;99.90;;;;;;4993483;28;20180;-83
2022/07/31 06:52:03;;;;;;;3.33;2.63;;;21.80;99.90;;;;;;4996375;28;20554;-83
2022/07/31 06:54:28;;;;;;;2.60;2.20;;;21.70;1.00;;;;;;4994721;28;20204;-83
2022/07/31 06:56:54;;;;;;;6.20;2.70;;;21.70;1.00;;;;;;4990392;28;20185;-83
2022/07/31 06:59:20;;;;;;;5.13;2.60;;;21.70;1.00;;;;;;4996111;28;20186;-83
2022/07/31 07:01:46;;;;;;;4.17;2.90;;;21.60;1.00;;;;;;4992222;28;20192;-82
2022/07/31 07:04:12;;;;;;;2.90;2.43;;;21.70;1.00;;;;;;4973856;28;20463;-82
2022/07/31 07:06:37;;;;;;;3.97;2.57;;;21.70;1.00;;;;;;4992114;28;20676;-83
2022/07/31 07:09:03;;;;;;;3.63;2.97;;;21.70;1.00;;;;;;4996559;28;20191;-83
2022/07/31 07:11:28;;;;;;;4.40;2.33;;;21.70;1.00;;;;;;4990438;28;20195;-82
2022/07/31 07:13:54;;;;;;;5.00;2.20;;;21.90;1.00;;;;;;4993493;28;20215;-83
2022/07/31 07:16:19;;;;;;;5.27;2.63;;;22.00;1.00;;;;;;4996397;28;20253;-83
2022/07/31 07:18:45;;;;;;;3.63;2.10;;;22.20;1.00;;;;;;4970282;28;20182;-82
2022/07/31 07:21:11;;;;;;;6.23;2.80;;;22.40;1.00;;;;;;4985786;28;20193;-83
2022/07/31 07:23:37;;;;;;;2.10;1.90;;;22.60;1.00;;;;;;4975358;28;20464;-82
2022/07/31 07:26:03;;;;;;;2.50;2.30;;;22.80;99.90;;;;;;4992162;28;20257;-83
2022/07/31 07:28:29;;;;;;;3.50;2.87;;;22.90;99.90;;;;;;4989499;28;20487;-84
2022/07/31 07:30:54;;;;;;;3.27;2.30;;;23.20;99.90;;;;;;4993266;28;21031;-83
2022/07/31 07:33:20;;;;;;;3.50;2.37;;;23.30;99.90;;;;;;4994789;28;20200;-83
2022/07/31 07:35:46;;;;;;;4.53;2.17;;;23.50;99.90;;;;;;4995403;28;20198;-84
2022/07/31 07:38:11;;;;;;;4.50;2.53;;;23.70;99.90;;;;;;4992669;28;20184;-84
2022/07/31 07:40:37;;;;;;;3.97;2.30;;;24.00;99.90;;;;;;4975946;28;20203;-83
2022/07/31 07:43:02;;;;;;;3.87;2.57;;;24.70;99.90;;;;;;4975607;28;20199;-84
2022/07/31 07:45:28;;;;;;;2.97;1.87;;;25.90;99.90;;;;;;4986422;28;20285;-84
2022/07/31 07:47:54;;;;;;;2.73;1.80;;;26.70;99.90;;;;;;4990041;28;20187;-84
2022/07/31 07:50:22;;;;;;;3.50;1.83;;;27.50;99.90;;;;;;4989400;28;20313;-84
2022/07/31 07:52:48;;;;;;;2.87;1.50;;;27.60;99.90;;;;;;4991593;28;20238;-83
2022/07/31 07:55:14;;;;;;;5.17;2.47;;;27.90;99.90;;;;;;4976497;28;20552;-84
2022/07/31 07:57:43;;;;;;;2.93;1.77;;;28.40;99.90;;;;;;4989534;28;20179;-84
2022/07/31 08:00:10;;;;;;;3.23;1.97;;;31.90;99.90;;;;;;4988816;28;20195;-86
2022/07/31 08:02:35;;;;;;;3.23;1.83;;;34.90;99.90;;;;;;4985142;28;20442;-83
2022/07/31 08:05:01;;;;;;;5.53;1.60;;;36.20;99.90;;;;;;4991394;28;20462;-86
2022/07/31 08:07:31;;;;;;;2.03;1.60;;;35.40;99.90;;;;;;4992464;28;20207;-84
2022/07/31 08:09:57;;;;;;;2.00;1.70;;;33.90;99.90;;;;;;4990313;28;20195;-85
2022/07/31 08:12:24;;;;;;;5.57;2.10;;;32.70;99.90;;;;;;4990041;28;20513;-85
2022/07/31 08:14:49;;;;;;;2.40;1.60;;;32.10;99.90;;;;;;4972621;28;20456;-85
2022/07/31 08:17:18;;;;;;;3.27;1.90;;;32.70;99.90;;;;;;4972607;28;20430;-85
2022/07/31 08:19:43;;;;;;;2.23;2.03;;;32.40;99.90;;;;;;4990650;28;20191;-85
2022/07/31 08:22:10;;;;;;;2.80;1.70;;;32.70;99.90;;;;;;4971439;28;20435;-85
2022/07/31 08:24:35;;;;;;;7.17;2.50;;;33.70;99.90;;;;;;4984872;28;20635;-85
2022/07/31 08:29:45;;;;;;;2.70;2.00;;;31.90;99.90;;;;;;4990303;28;20260;-86
2022/07/31 08:32:12;;;;;;;2.47;2.00;;;31.30;99.90;;;;;;4988614;28;20569;-85
2022/07/31 08:34:37;;;;;;;2.20;1.60;;;31.50;99.90;;;;;;4992955;28;20242;-85
2022/07/31 08:37:05;;;;;;;3.20;1.80;;;32.20;99.90;;;;;;4993434;28;20736;-83
2022/07/31 08:39:34;;;;;;;3.43;3.13;;;32.10;99.90;;;;;;4988853;28;20191;-85
2022/07/31 08:42:09;;;;;;;3.50;1.80;;;32.60;99.90;;;;;;4984638;28;20478;-86
2022/07/31 08:44:36;;;;;;;3.93;2.00;;;33.30;99.90;;;;;;4985098;28;21005;-86
2022/07/31 08:47:06;;;;;;;2.87;1.83;;;37.00;99.90;;;;;;4989559;28;20518;-87
2022/07/31 08:49:35;;;;;;;2.43;1.80;;;37.50;99.90;;;;;;4985708;28;20443;-86
2022/07/31 08:52:01;;;;;;;2.27;1.70;;;38.60;99.90;;;;;;4988829;28;20555;-85
2022/07/31 08:54:27;;;;;;;2.70;2.10;;;38.90;97.90;;;;;;4990922;28;20545;-85
2022/07/31 08:56:53;;;;;;;4.70;1.83;;;38.00;93.30;;;;;;4986900;28;20665;-84
2022/07/31 08:59:20;;;;;;;3.67;2.70;;;36.40;88.40;;;;;;4970539;28;20493;-85
2022/07/31 09:01:46;;;;;;;3.60;1.97;;;34.80;81.90;;;;;;4971694;28;20352;-85
2022/07/31 09:04:11;;;;;;;3.03;1.77;;;33.40;79.40;;;;;;4988573;28;20557;-86
2022/07/31 09:06:37;;;;;;;2.77;1.93;;;32.60;79.20;;;;;;4983995;28;20196;-86
2022/07/31 09:09:03;;;;;;;3.43;2.10;;;32.20;79.10;;;;;;4968054;28;20596;-86
2022/07/31 09:11:29;;;;;;;2.80;1.60;;;32.00;80.50;;;;;;4987734;28;20230;-86
2022/07/31 09:13:56;;;;;;;8.10;2.30;;;31.60;81.30;;;;;;4988832;28;20991;-85
2022/07/31 09:16:22;;;;;;;6.03;2.03;;;31.30;82.60;;;;;;4982508;28;20184;-84
2022/07/31 09:19:14;;;;;;;2.60;1.73;;;31.00;85.00;;;;;;4984106;28;20521;-86
2022/07/31 09:21:42;;;;;;;3.60;2.17;;;31.00;86.90;;;;;;4969291;28;20963;-85
2022/07/31 09:24:12;;;;;;;2.57;1.43;;;31.30;89.60;;;;;;4968855;28;20466;-83
2022/07/31 09:26:39;;;;;;;1.90;1.40;;;32.00;91.20;;;;;;4985115;28;20527;-85
2022/07/31 09:29:10;;;;;;;2.60;1.60;;;33.00;92.70;;;;;;4987809;28;20809;-85
2022/07/31 09:31:35;;;;;;;2.30;1.63;;;34.00;93.20;;;;;;4963186;28;20439;-85
2022/07/31 09:34:01;;;;;;;1.50;1.40;;;36.70;95.20;;;;;;4986121;28;20479;-85
2022/07/31 09:36:27;;;;;;;1.90;1.30;;;38.80;94.40;;;;;;4987241;28;20210;-86
2022/07/31 09:38:55;;;;;;;1.40;1.10;;;39.30;91.10;;;;;;4984981;28;20191;-86
2022/07/31 09:41:21;;;;;;;5.40;1.67;;;38.40;83.00;;;;;;4990068;28;20503;-85
2022/07/31 09:44:01;;;;;;;2.03;1.30;;;37.40;76.00;;;;;;4989658;28;20549;-86
2022/07/31 09:46:38;;;;;;;2.93;2.00;;;37.00;73.10;;;;;;4965987;28;20918;-84
2022/07/31 09:49:04;;;;;;;2.80;1.80;;;37.70;74.50;;;;;;4988489;28;20430;-86
2022/07/31 09:51:44;;;;;;;2.33;1.10;;;37.60;70.80;;;;;;4971579;28;20450;-86
2022/07/31 09:54:24;;;;;;;1.67;1.47;;;37.40;68.10;;;;;;4988175;28;20215;-86
2022/07/31 09:56:49;;;;;;;3.47;1.67;;;36.40;62.80;;;;;;4982092;28;20781;-85
2022/07/31 09:59:15;;;;;;;2.97;1.40;;;35.80;60.10;;;;;;4986681;28;20457;-86
2022/07/31 10:01:42;;;;;;;2.77;1.60;;;35.20;78.90;;;;;;4987161;28;20623;-86
2022/07/31 10:04:09;;;;;;;2.20;1.70;;;36.20;65.10;;;;;;4970069;28;20261;-85
2022/07/31 10:06:36;;;;;;;3.10;1.70;;;36.10;65.40;;;;;;4986356;28;20542;-87
2022/07/31 10:09:03;;;;;;;2.20;1.50;;;35.80;63.00;;;;;;4983638;28;20748;-87
2022/07/31 10:11:31;;;;;;;1.70;1.50;;;35.30;59.70;;;;;;4979449;28;20443;-86
2022/07/31 10:14:01;;;;;;;1.97;1.57;;;35.30;60.60;;;;;;4982343;28;20565;-84
2022/07/31 10:16:31;;;;;;;5.70;1.87;;;35.70;62.40;;;;;;4971313;28;20449;-85
2022/07/31 10:19:00;;;;;;;5.83;1.70;;;36.00;63.00;;;;;;4971876;28;20446;-84
2022/07/31 10:21:32;;;;;;;2.23;1.50;;;36.40;63.80;;;;;;4992394;28;20423;-86
2022/07/31 10:24:00;;;;;;;2.47;1.53;;;36.40;80.60;;;;;;4992997;28;20951;-86
2022/07/31 10:26:27;;;;;;;3.87;1.50;;;36.50;63.30;;;;;;4994591;28;20453;-87
2022/07/31 10:28:53;;;;;;;2.90;1.30;;;36.60;61.90;;;;;;4996557;28;20500;-87
2022/07/31 10:31:19;;;;;;;2.70;1.63;;;36.60;61.40;;;;;;4996163;28;20462;-87
2022/07/31 10:33:46;;;;;;;5.67;1.70;;;36.70;61.20;;;;;;4996410;28;20489;-87
2022/07/31 10:36:20;;;;;;;2.40;1.70;;;36.90;59.90;;;;;;4995473;28;20423;-87
2022/07/31 10:38:54;;;;;;;1.57;1.20;;;37.00;59.70;;;;;;4996430;28;20477;-87
2022/07/31 10:41:46;;;;;;;3.20;1.80;;;37.40;60.30;;;;;;4994904;28;20970;-87
2022/07/31 10:44:26;;;;;;;2.73;1.60;;;37.40;58.90;;;;;;4980311;28;20455;-86
2022/07/31 10:46:52;;;;;;;3.20;1.70;;;36.90;56.80;;;;;;4995609;28;20434;-87
2022/07/31 10:49:17;;;;;;;2.00;1.70;;;36.50;55.30;;;;;;4995903;28;20433;-85
2022/07/31 10:51:50;;;;;;;3.57;1.70;;;36.20;55.40;;;;;;4978121;28;20187;-86
2022/07/31 10:54:16;;;;;;;2.33;1.70;;;36.10;54.40;;;;;;4995438;28;20211;-86
2022/07/31 10:56:46;;;;;;;1.97;1.70;;;35.60;53.60;;;;;;4978329;28;20426;-85
2022/07/31 10:59:12;;;;;;;4.17;1.60;;;35.30;52.90;;;;;;4971480;28;20598;-87
2022/07/31 11:01:45;;;;;;;2.17;1.63;;;35.20;53.20;;;;;;4996652;28;20423;-85
2022/07/31 11:04:11;;;;;;;2.60;1.87;;;35.00;52.70;;;;;;4995433;28;20225;-87
2022/07/31 11:06:39;;;;;;;5.67;1.90;;;34.70;52.80;;;;;;4976223;28;20427;-87
2022/07/31 11:09:04;;;;;;;4.03;1.80;;;34.60;53.20;;;;;;4976628;28;20180;-86
2022/07/31 11:11:35;;;;;;;2.70;2.10;;;34.60;54.00;;;;;;4989164;28;20526;-87
2022/07/31 11:14:01;;;;;;;3.10;2.20;;;34.90;54.70;;;;;;4995574;28;20269;-85
2022/07/31 11:16:28;;;;;;;5.27;2.30;;;35.30;56.20;;;;;;4994619;28;20838;-86
2022/07/31 11:19:05;;;;;;;3.00;1.90;;;35.80;57.00;;;;;;4995878;28;20923;-86
2022/07/31 11:21:36;;;;;;;3.50;1.80;;;36.10;57.60;;;;;;4995681;28;20488;-87
2022/07/31 11:24:10;;;;;;;2.70;2.10;;;36.00;56.20;;;;;;4995223;28;20593;-86
2022/07/31 11:26:36;;;;;;;2.60;1.90;;;36.30;56.10;;;;;;4995105;28;20468;-87
2022/07/31 11:29:02;;;;;;;5.70;2.10;;;37.10;57.60;;;;;;4981329;28;20518;-87
2022/07/31 11:31:31;;;;;;;2.13;1.57;;;38.20;59.40;;;;;;4976094;28;20191;-87
2022/07/31 11:34:02;;;;;;;3.17;1.97;;;38.10;56.70;;;;;;4975897;28;20263;-84
2022/07/31 11:36:28;;;;;;;2.40;1.97;;;37.60;54.30;;;;;;4993703;28;20978;-86
2022/07/31 11:38:59;;;;;;;2.30;2.10;;;36.90;51.90;;;;;;4995619;28;20430;-87
2022/07/31 11:41:28;;;;;;;4.13;2.37;;;36.60;51.40;;;;;;4982139;28;20550;-85
2022/07/31 11:43:56;;;;;;;3.00;2.27;;;36.50;50.70;;;;;;4995258;28;20877;-87
2022/07/31 11:46:30;;;;;;;2.33;1.80;;;36.20;50.40;;;;;;4976239;28;20497;-87
2022/07/31 11:48:57;;;;;;;1.93;1.80;;;36.10;50.30;;;;;;4995563;28;20425;-87
2022/07/31 11:51:24;;;;;;;2.23;2.00;;;36.10;50.70;;;;;;4995222;28;20438;-86
2022/07/31 11:53:51;;;;;;;2.23;1.90;;;36.10;50.70;;;;;;4994809;28;20544;-86
2022/07/31 11:56:18;;;;;;;4.60;2.17;;;35.90;51.50;;;;;;4993941;28;20415;-86
2022/07/31 11:58:51;;;;;;;2.97;2.07;;;35.80;52.00;;;;;;4995107;28;20423;-85
2022/07/31 12:01:17;;;;;;;2.10;2.00;;;35.90;52.70;;;;;;4994575;28;20506;-86
2022/07/31 12:03:45;;;;;;;3.20;2.37;;;35.60;52.10;;;;;;4994978;28;20493;-86
2022/07/31 12:06:11;;;;;;;5.13;2.30;;;35.50;51.70;;;;;;4976278;28;20439;-86
2022/07/31 12:08:38;;;;;;;4.93;2.40;;;35.60;52.10;;;;;;4994872;28;20851;-86
2022/07/31 12:11:06;;;;;;;3.00;2.67;;;35.50;53.10;;;;;;4994711;28;20431;-86
2022/07/31 12:13:32;;;;;;;3.13;2.40;;;35.40;52.30;;;;;;4994853;28;20509;-86
2022/07/31 12:16:06;;;;;;;2.93;2.60;;;35.20;52.60;;;;;;4993944;28;22057;-87
2022/07/31 12:18:58;;;;;;;2.77;2.53;;;34.70;51.60;;;;;;4994186;28;20179;-87
2022/07/31 12:21:32;;;;;;;3.33;2.53;;;34.30;51.90;;;;;;4977213;28;20438;-86
2022/07/31 12:23:59;;;;;;;2.67;2.47;;;34.10;52.70;;;;;;4994573;28;20442;-84
2022/07/31 12:26:30;;;;;;;7.43;2.67;;;33.80;52.80;;;;;;4976215;28;20431;-86
2022/07/31 12:29:00;;;;;;;3.73;2.80;;;33.70;54.30;;;;;;4994754;28;20449;-85
2022/07/31 12:31:26;;;;;;;4.10;3.23;;;33.90;54.70;;;;;;4994052;28;20513;-86
2022/07/31 12:33:53;;;;;;;4.77;2.83;;;34.30;57.60;;;;;;4977240;28;20473;-86
2022/07/31 12:36:18;;;;;;;2.87;2.63;;;34.90;58.30;;;;;;4987987;28;20419;-85
2022/07/31 12:38:45;;;;;;;2.80;2.60;;;34.90;57.50;;;;;;4986443;28;20526;-86
2022/07/31 12:41:11;;;;;;;3.07;2.87;;;35.10;59.20;;;;;;4976683;28;20239;-85
2022/07/31 12:43:37;;;;;;;3.50;3.07;;;35.80;62.10;;;;;;4993994;28;20497;-85
2022/07/31 12:46:05;;;;;;;2.90;2.70;;;36.50;63.10;;;;;;4976845;28;20734;-87
2022/07/31 12:48:32;;;;;;;2.80;2.50;;;36.80;61.90;;;;;;4956347;28;20679;-86
2022/07/31 12:51:00;;;;;;;3.47;3.10;;;37.30;60.60;;;;;;4956962;28;20951;-86
2022/07/31 12:53:28;;;;;;;2.80;2.23;;;37.60;60.40;;;;;;4985494;28;20898;-86